createdAt,value
2022-12-04T00:01:05.817Z,27.52
2022-12-04T00:03:40.764Z,29.17
2022-12-04T00:06:15.385Z,27.48
2022-12-04T00:08:52.000Z,30.30
2022-12-04T00:11:27.792Z,28.85
2022-12-04T00:14:06.836Z,29.02
2022-12-04T00:16:40.435Z,27.98
2022-12-04T00:21:48.356Z,28.20
2022-12-04T00:24:21.299Z,29.00
2022-12-04T00:29:26.873Z,22.13
2022-12-04T00:31:59.843Z,30.13
2022-12-04T00:34:34.050Z,29.30
2022-12-04T00:37:09.910Z,30.60
2022-12-04T00:39:42.733Z,28.58
2022-12-04T00:42:15.736Z,29.77
2022-12-04T00:47:21.294Z,22.08
2022-12-04T00:49:56.207Z,27.52
2022-12-04T00:52:30.881Z,27.85
2022-12-04T00:55:04.196Z,30.50
2022-12-04T00:57:37.464Z,29.50
2022-12-04T01:00:10.929Z,29.67
2022-12-04T01:02:43.933Z,29.17
2022-12-04T01:05:18.409Z,27.80
2022-12-04T01:07:51.540Z,30.20
2022-12-04T01:10:24.883Z,29.83
2022-12-04T01:12:58.802Z,29.85
2022-12-04T01:15:31.863Z,29.55
2022-12-04T01:18:04.805Z,29.60
2022-12-04T01:23:12.432Z,29.23
2022-12-04T01:25:52.207Z,31.25
2022-12-04T01:28:30.162Z,32.10
2022-12-04T01:31:07.580Z,30.45
2022-12-04T01:33:42.949Z,30.42
2022-12-04T01:36:21.906Z,29.38
2022-12-04T01:38:55.377Z,28.92
2022-12-04T01:41:30.744Z,31.75
2022-12-04T01:44:17.877Z,31.05
2022-12-04T01:46:53.520Z,30.13
2022-12-04T01:49:30.831Z,31.25
2022-12-04T01:52:08.055Z,30.63
2022-12-04T01:54:44.009Z,31.08
2022-12-04T01:57:19.686Z,29.00
2022-12-04T01:59:56.871Z,29.13
2022-12-04T02:02:33.708Z,31.65
2022-12-04T02:05:09.884Z,29.05
2022-12-04T02:07:50.307Z,31.40
2022-12-04T02:10:32.189Z,30.33
2022-12-04T02:13:16.049Z,31.75
2022-12-04T02:15:55.281Z,31.10
2022-12-04T02:18:35.379Z,32.55
2022-12-04T02:21:15.597Z,29.67
2022-12-04T02:24:16.577Z,32.13
2022-12-04T02:26:54.605Z,30.73
2022-12-04T02:29:39.029Z,31.13
2022-12-04T02:32:20.194Z,33.20
2022-12-04T02:34:59.047Z,31.65
2022-12-04T02:37:37.508Z,29.52
2022-12-04T02:40:18.489Z,30.23
2022-12-04T02:42:56.470Z,32.40
2022-12-04T02:45:36.255Z,31.88
2022-12-04T02:48:10.336Z,31.67
2022-12-04T02:50:44.237Z,32.20
2022-12-04T02:53:20.536Z,31.10
2022-12-04T02:55:57.045Z,32.38
2022-12-04T02:58:35.938Z,30.30
2022-12-04T03:01:23.910Z,33.15
2022-12-04T03:04:06.386Z,34.25
2022-12-04T03:06:43.213Z,33.47
2022-12-04T03:09:21.238Z,31.63
2022-12-04T03:11:57.866Z,33.55
2022-12-04T03:14:34.902Z,31.10
2022-12-04T03:17:17.915Z,36.13
2022-12-04T03:22:32.777Z,34.50
2022-12-04T03:25:09.591Z,33.63
2022-12-04T03:27:49.743Z,34.63
2022-12-04T03:30:23.711Z,33.80
2022-12-04T03:33:04.531Z,36.47
2022-12-04T03:35:45.312Z,33.13
2022-12-04T03:38:28.991Z,33.47
2022-12-04T03:41:05.866Z,34.45
2022-12-04T03:43:48.208Z,33.30
2022-12-04T03:46:28.042Z,36.38
2022-12-04T03:49:10.223Z,37.22
2022-12-04T03:51:48.596Z,34.03
2022-12-04T03:54:25.154Z,34.05
2022-12-04T03:57:05.338Z,35.40
2022-12-04T03:59:41.820Z,38.30
2022-12-04T04:02:24.634Z,35.60
2022-12-04T04:05:04.492Z,35.55
2022-12-04T04:07:43.625Z,35.60
2022-12-04T04:10:26.118Z,37.45
2022-12-04T04:13:21.169Z,28.45
2022-12-04T04:16:14.708Z,35.25
2022-12-04T04:19:07.654Z,36.63
2022-12-04T04:22:01.705Z,37.42
2022-12-04T04:24:40.830Z,36.05
2022-12-04T04:27:13.776Z,37.40
2022-12-04T04:32:32.122Z,36.00
2022-12-04T04:35:16.122Z,37.10
2022-12-04T04:37:58.978Z,36.10
2022-12-04T04:40:39.213Z,34.92
2022-12-04T04:43:20.046Z,34.75
2022-12-04T04:45:59.485Z,35.33
2022-12-04T04:48:38.335Z,35.65
2022-12-04T04:51:12.721Z,39.13
2022-12-04T04:53:52.970Z,35.05
2022-12-04T04:56:26.372Z,35.78
2022-12-04T04:59:02.008Z,37.20
2022-12-04T05:01:39.384Z,38.60
2022-12-04T05:04:19.936Z,27.67
2022-12-04T05:06:52.947Z,35.70
2022-12-04T05:09:27.655Z,36.08
2022-12-04T05:12:07.105Z,34.78
2022-12-04T05:14:40.184Z,36.38
2022-12-04T05:19:54.533Z,37.00
2022-12-04T05:22:31.661Z,37.67
2022-12-04T05:25:06.830Z,35.85
2022-12-04T05:27:40.106Z,36.10
2022-12-04T05:30:13.615Z,37.97
2022-12-04T05:32:46.723Z,34.60
2022-12-04T05:35:19.789Z,35.95
2022-12-04T05:37:52.675Z,37.00
2022-12-04T05:42:59.652Z,37.22
2022-12-04T05:45:32.857Z,38.70
2022-12-04T05:48:06.135Z,36.22
2022-12-04T05:50:39.306Z,37.63
2022-12-04T05:53:12.315Z,37.10
2022-12-04T05:58:19.332Z,36.78
2022-12-04T06:03:30.692Z,35.38
2022-12-04T06:06:06.545Z,34.85
2022-12-04T06:08:39.459Z,36.83
2022-12-04T06:13:50.029Z,37.15
2022-12-04T06:16:27.248Z,38.20
2022-12-04T06:19:02.351Z,36.28
2022-12-04T06:21:37.233Z,37.78
2022-12-04T06:24:13.978Z,37.33
2022-12-04T06:27:18.955Z,36.85
2022-12-04T06:29:41.632Z,35.75
2022-12-04T06:34:55.695Z,37.10
2022-12-04T06:37:28.751Z,34.88
2022-12-04T06:40:03.922Z,35.72
2022-12-04T06:42:43.782Z,35.63
2022-12-04T06:45:20.252Z,35.92
2022-12-04T06:47:56.194Z,37.38
2022-12-04T06:50:31.853Z,36.40
2022-12-04T06:53:08.358Z,35.65
2022-12-04T06:55:41.526Z,36.35
2022-12-04T07:00:48.573Z,35.78
2022-12-04T07:03:22.198Z,36.67
2022-12-04T07:05:54.926Z,35.53
2022-12-04T07:08:27.747Z,37.55
2022-12-04T07:11:03.338Z,38.75
2022-12-04T07:13:37.849Z,37.70
2022-12-04T07:16:14.507Z,37.05
2022-12-04T07:18:50.390Z,35.20
2022-12-04T07:21:26.184Z,37.38
2022-12-04T07:24:01.907Z,35.42
2022-12-04T07:26:38.213Z,35.97
2022-12-04T07:29:15.906Z,36.42
2022-12-04T07:31:51.813Z,36.00
2022-12-04T07:34:28.949Z,36.72
2022-12-04T07:37:02.530Z,38.03
2022-12-04T07:39:35.936Z,35.72
2022-12-04T07:42:08.882Z,36.45
2022-12-04T07:44:50.950Z,35.10
2022-12-04T07:47:24.153Z,36.20
2022-12-04T07:49:57.699Z,35.63
2022-12-04T07:52:31.313Z,36.65
2022-12-04T07:55:08.499Z,34.33
2022-12-04T07:57:43.566Z,38.10
2022-12-04T08:00:19.235Z,36.28
2022-12-04T08:02:52.854Z,35.03
2022-12-04T08:05:28.189Z,36.97
2022-12-04T08:10:34.360Z,36.08
2022-12-04T08:15:41.483Z,34.05
2022-12-04T08:18:17.621Z,35.63
2022-12-04T08:20:50.668Z,36.05
2022-12-04T08:23:24.042Z,34.28
2022-12-04T08:26:02.511Z,38.17
2022-12-04T08:28:39.305Z,38.67
2022-12-04T08:31:16.919Z,37.67
2022-12-04T08:33:51.518Z,37.53
2022-12-04T08:36:25.175Z,37.05
2022-12-04T08:39:00.124Z,37.63
2022-12-04T08:41:36.062Z,37.22
2022-12-04T08:44:09.296Z,39.22
2022-12-04T08:46:43.842Z,39.20
2022-12-04T08:49:16.857Z,36.58
2022-12-04T08:54:23.204Z,36.70
2022-12-04T08:56:56.057Z,36.22
2022-12-04T08:59:29.270Z,35.92
2022-12-04T09:02:03.499Z,36.83
2022-12-04T09:04:36.899Z,35.72
2022-12-04T09:07:09.692Z,39.38
2022-12-04T09:09:48.089Z,36.10
2022-12-04T09:12:21.254Z,37.33
2022-12-04T09:14:54.038Z,35.83
2022-12-04T09:17:28.149Z,36.90
2022-12-04T09:20:01.808Z,37.65
2022-12-04T09:22:57.709Z,38.35
2022-12-04T09:25:27.815Z,39.97
2022-12-04T09:28:00.567Z,37.08
2022-12-04T09:30:33.296Z,35.00
2022-12-04T09:33:07.442Z,35.05
2022-12-04T09:35:40.291Z,36.15
2022-12-04T09:38:13.029Z,35.85
2022-12-04T09:40:51.166Z,36.33
2022-12-04T09:43:32.167Z,41.33
2022-12-04T09:46:10.604Z,35.25
2022-12-04T09:48:48.625Z,35.38
2022-12-04T09:51:24.935Z,38.20
2022-12-04T09:54:01.701Z,36.85
2022-12-04T09:56:34.472Z,36.80
2022-12-04T09:59:13.480Z,34.33
2022-12-04T10:01:49.277Z,36.90
2022-12-04T10:04:23.633Z,38.35
2022-12-04T10:07:04.093Z,37.33
2022-12-04T10:09:43.449Z,35.35
2022-12-04T10:12:24.845Z,35.65
2022-12-04T10:15:08.630Z,36.95
2022-12-04T10:18:04.815Z,38.35
2022-12-04T10:20:55.342Z,35.65
2022-12-04T10:23:39.647Z,34.80
2022-12-04T10:26:17.079Z,37.78
2022-12-04T10:28:56.301Z,38.00
2022-12-04T10:31:30.734Z,36.08
2022-12-04T10:34:08.652Z,35.63
2022-12-04T10:36:46.856Z,36.05
2022-12-04T10:39:25.885Z,36.60
2022-12-04T10:42:05.000Z,35.40
2022-12-04T10:44:37.690Z,37.28
2022-12-04T10:47:13.164Z,37.35
2022-12-04T10:49:46.177Z,37.60
2022-12-04T10:54:57.547Z,36.80
2022-12-04T10:57:38.828Z,36.75
2022-12-04T11:00:30.582Z,36.35
2022-12-04T11:03:10.097Z,36.40
2022-12-04T11:05:47.374Z,35.67
2022-12-04T11:08:26.893Z,35.13
2022-12-04T11:11:02.537Z,37.80
2022-12-04T11:13:36.327Z,36.17
2022-12-04T11:16:34.442Z,34.88
2022-12-04T11:19:21.424Z,39.72
2022-12-04T11:21:56.951Z,37.58
2022-12-04T11:24:34.435Z,40.60
2022-12-04T11:27:16.462Z,37.10
2022-12-04T11:29:49.848Z,37.63
2022-12-04T11:32:25.110Z,34.03
2022-12-04T11:35:02.296Z,37.53
2022-12-04T11:37:39.227Z,37.47
2022-12-04T11:40:20.408Z,37.20
2022-12-04T11:43:05.087Z,33.60
2022-12-04T11:45:38.059Z,37.65
2022-12-04T11:48:16.122Z,36.40
2022-12-04T11:50:55.292Z,36.58
2022-12-04T11:53:45.033Z,34.40
2022-12-04T11:56:33.086Z,35.45
2022-12-04T11:59:34.444Z,32.25
2022-12-04T12:02:22.979Z,31.05
2022-12-04T12:05:09.657Z,35.00
2022-12-04T12:07:49.346Z,30.70
2022-12-04T12:10:31.896Z,32.95
2022-12-04T12:13:13.852Z,31.60
2022-12-04T12:15:53.338Z,28.98
2022-12-04T12:18:47.736Z,29.60
2022-12-04T12:21:26.025Z,26.40
2022-12-04T12:24:10.749Z,28.02
2022-12-04T12:26:50.648Z,26.58
2022-12-04T12:29:38.829Z,27.38
2022-12-04T12:32:27.662Z,27.60
2022-12-04T12:35:01.945Z,27.00
2022-12-04T12:37:43.048Z,25.80
2022-12-04T12:40:24.286Z,26.42
2022-12-04T12:43:02.522Z,24.52
2022-12-04T12:45:44.148Z,25.98
2022-12-04T12:48:27.945Z,25.35
2022-12-04T12:51:29.133Z,25.17
2022-12-04T12:54:10.737Z,24.75
2022-12-04T12:56:50.068Z,24.92
2022-12-04T12:59:27.614Z,23.42
2022-12-04T13:02:10.435Z,26.65
2022-12-04T13:04:47.918Z,26.80
2022-12-04T13:07:33.983Z,26.75
2022-12-04T13:10:15.044Z,26.38
2022-12-04T13:12:52.658Z,27.80
2022-12-04T13:15:33.423Z,25.15
2022-12-04T13:18:11.735Z,25.55
2022-12-04T13:20:51.362Z,25.77
2022-12-04T13:23:38.854Z,25.60
2022-12-04T13:26:21.196Z,26.50
2022-12-04T13:29:01.147Z,25.42
2022-12-04T13:31:43.523Z,27.65
2022-12-04T13:34:44.000Z,25.40
2022-12-04T13:37:29.699Z,24.67
2022-12-04T13:40:33.540Z,23.98
2022-12-04T13:43:37.484Z,25.50
2022-12-04T13:46:26.784Z,24.50
2022-12-04T13:49:09.750Z,25.00
2022-12-04T13:51:45.709Z,23.70
2022-12-04T13:54:27.576Z,24.15
2022-12-04T13:57:19.471Z,24.20
2022-12-04T14:00:04.268Z,24.23
2022-12-04T14:02:52.210Z,24.27
2022-12-04T14:05:32.511Z,24.65
2022-12-04T14:08:23.954Z,25.48
2022-12-04T14:11:03.393Z,23.13
2022-12-04T14:13:44.254Z,23.20
2022-12-04T14:16:22.173Z,24.10
2022-12-04T14:18:57.498Z,23.45
2022-12-04T14:21:40.334Z,22.10
2022-12-04T14:24:37.275Z,24.40
2022-12-04T14:27:33.330Z,22.85
2022-12-04T14:30:16.231Z,23.73
2022-12-04T14:32:51.483Z,21.83
2022-12-04T14:35:29.699Z,20.15
2022-12-04T14:38:05.001Z,22.98
2022-12-04T14:40:44.804Z,21.65
2022-12-04T14:43:20.201Z,20.65
2022-12-04T14:45:59.953Z,21.45
2022-12-04T14:48:41.177Z,20.48
2022-12-04T14:51:23.828Z,21.25
2022-12-04T14:54:04.475Z,20.92
2022-12-04T14:56:52.055Z,21.77
2022-12-04T14:59:34.204Z,19.80
2022-12-04T15:02:13.539Z,20.57
2022-12-04T15:04:48.441Z,19.35
2022-12-04T15:07:23.181Z,20.10
2022-12-04T15:10:15.519Z,20.40
2022-12-04T15:12:56.777Z,20.23
2022-12-04T15:15:33.345Z,20.38
2022-12-04T15:18:14.409Z,19.33
2022-12-04T15:20:58.046Z,18.98
2022-12-04T15:23:36.061Z,18.35
2022-12-04T15:26:13.239Z,18.95
2022-12-04T15:28:51.803Z,18.15
2022-12-04T15:31:29.483Z,17.85
2022-12-04T15:34:07.462Z,18.58
2022-12-04T15:36:46.045Z,18.10
2022-12-04T15:39:21.104Z,17.77
2022-12-04T15:42:06.358Z,18.40
2022-12-04T15:44:45.989Z,17.13
2022-12-04T15:47:23.203Z,16.48
2022-12-04T15:49:57.573Z,18.27
2022-12-04T15:52:31.640Z,16.50
2022-12-04T15:55:08.818Z,17.25
2022-12-04T15:57:44.901Z,17.83
2022-12-04T16:00:28.205Z,17.40
2022-12-04T16:03:01.989Z,19.52
2022-12-04T16:05:37.481Z,17.95
2022-12-04T16:08:27.009Z,15.75
2022-12-04T16:11:02.987Z,17.50
2022-12-04T16:13:38.330Z,16.92
2022-12-04T16:16:19.206Z,16.63
2022-12-04T16:18:52.193Z,17.10
2022-12-04T16:21:30.670Z,18.65
2022-12-04T16:24:03.889Z,17.65
2022-12-04T16:26:36.986Z,18.83
2022-12-04T16:29:10.789Z,18.92
2022-12-04T16:31:48.367Z,16.95
2022-12-04T16:34:21.462Z,17.13
2022-12-04T16:37:04.492Z,16.42
2022-12-04T16:39:41.320Z,16.52
2022-12-04T16:42:17.829Z,18.40
2022-12-04T16:44:51.256Z,18.80
2022-12-04T16:47:25.472Z,18.15
2022-12-04T16:49:58.784Z,17.48
2022-12-04T16:52:32.076Z,16.90
2022-12-04T16:55:12.147Z,18.75
2022-12-04T16:57:45.575Z,17.10
2022-12-04T17:00:19.622Z,19.20
2022-12-04T17:02:54.325Z,18.45
2022-12-04T17:05:29.213Z,20.48
2022-12-04T17:08:02.162Z,18.00
2022-12-04T17:13:07.969Z,19.60
2022-12-04T17:15:40.889Z,18.98
2022-12-04T17:18:20.967Z,20.92
2022-12-04T17:20:54.901Z,21.23
2022-12-04T17:23:27.951Z,22.00
2022-12-04T17:26:05.127Z,21.33
2022-12-04T17:28:38.307Z,20.60
2022-12-04T17:31:16.813Z,22.13
2022-12-04T17:33:51.481Z,21.55
2022-12-04T17:36:27.609Z,20.75
2022-12-04T17:39:02.563Z,21.05
2022-12-04T17:41:35.715Z,22.55
2022-12-04T17:44:08.442Z,24.13
2022-12-04T17:46:41.431Z,25.15
2022-12-04T17:49:15.774Z,22.40
2022-12-04T17:51:49.018Z,23.58
2022-12-04T17:54:21.962Z,23.73
2022-12-04T17:59:31.414Z,24.80
2022-12-04T18:02:04.724Z,26.75
2022-12-04T18:04:39.214Z,25.83
2022-12-04T18:07:12.228Z,25.98
2022-12-04T18:12:18.263Z,27.80
2022-12-04T18:14:51.818Z,28.10
2022-12-04T18:17:24.868Z,28.30
2022-12-04T18:20:04.235Z,28.90
2022-12-04T18:22:39.281Z,28.65
2022-12-04T18:25:12.218Z,27.35
2022-12-04T18:27:45.020Z,28.15
2022-12-04T18:30:18.202Z,25.80
2022-12-04T18:32:51.480Z,27.00
2022-12-04T18:35:25.620Z,27.83
2022-12-04T18:37:58.699Z,29.42
2022-12-04T18:43:06.120Z,27.67
2022-12-04T18:45:39.138Z,28.85
2022-12-04T18:48:14.861Z,28.38
2022-12-04T18:50:49.060Z,29.05
2022-12-04T18:53:22.270Z,27.48
2022-12-04T18:55:55.787Z,29.25
2022-12-04T18:58:29.035Z,26.77
2022-12-04T19:01:06.165Z,28.80
2022-12-04T19:03:38.992Z,28.88
2022-12-04T19:06:13.901Z,29.20
2022-12-04T19:08:46.719Z,29.60
2022-12-04T19:11:21.017Z,28.27
2022-12-04T19:13:53.882Z,27.52
2022-12-04T19:19:02.873Z,30.88
2022-12-04T19:21:37.036Z,29.30
2022-12-04T19:24:11.198Z,29.58
2022-12-04T19:26:44.906Z,28.13
2022-12-04T19:29:18.214Z,29.65
2022-12-04T19:31:56.001Z,28.92
2022-12-04T19:34:32.181Z,29.13
2022-12-04T19:37:06.897Z,30.35
2022-12-04T19:39:46.058Z,28.08
2022-12-04T19:42:18.941Z,29.58
2022-12-04T19:44:51.798Z,29.70
2022-12-04T19:47:24.885Z,29.33
2022-12-04T19:49:58.276Z,29.75
2022-12-04T19:52:33.582Z,30.92
2022-12-04T19:55:08.989Z,28.15
2022-12-04T19:57:41.767Z,29.27
2022-12-04T20:00:15.640Z,29.63
2022-12-04T20:02:48.497Z,27.67
2022-12-04T20:10:29.929Z,29.30
2022-12-04T20:15:36.394Z,23.85
2022-12-04T20:18:09.160Z,28.67
2022-12-04T20:20:45.071Z,27.80
2022-12-04T20:23:19.300Z,29.40
2022-12-04T20:25:52.784Z,28.42
2022-12-04T20:28:25.547Z,29.85
2022-12-04T20:33:31.431Z,27.80
2022-12-04T20:36:04.267Z,27.00
2022-12-04T20:38:40.030Z,27.50
2022-12-04T20:41:16.005Z,29.08
2022-12-04T20:43:48.997Z,27.40
2022-12-04T20:48:55.867Z,27.38
2022-12-04T20:51:32.327Z,28.52
2022-12-04T20:54:07.873Z,27.58
2022-12-04T20:56:40.716Z,26.27
2022-12-04T20:59:15.339Z,26.02
2022-12-04T21:01:49.074Z,26.45
2022-12-04T21:04:22.786Z,28.08
2022-12-04T21:06:55.716Z,27.25
2022-12-04T21:09:30.903Z,26.58
2022-12-04T21:12:24.730Z,26.48
2022-12-04T21:15:15.100Z,25.95
2022-12-04T21:17:47.953Z,27.30
2022-12-04T21:20:20.803Z,28.38
2022-12-04T21:22:53.556Z,25.83
2022-12-04T21:25:27.769Z,25.25
2022-12-04T21:28:00.770Z,26.42
2022-12-04T21:33:06.534Z,24.85
2022-12-04T21:35:40.256Z,26.80
2022-12-04T21:38:13.105Z,27.20
2022-12-04T21:40:49.368Z,25.55
2022-12-04T21:43:22.173Z,25.77
2022-12-04T21:46:02.021Z,25.05
2022-12-04T21:48:38.865Z,25.88
2022-12-04T21:54:04.904Z,24.45
2022-12-04T21:56:38.924Z,25.50
2022-12-04T21:59:12.097Z,24.73
2022-12-04T22:01:44.893Z,27.15
2022-12-04T22:06:50.774Z,25.65
2022-12-04T22:11:57.497Z,19.88
2022-12-04T22:14:30.681Z,26.30
2022-12-04T22:17:03.420Z,25.65
2022-12-04T22:19:37.039Z,26.55
2022-12-04T22:22:09.745Z,25.98
2022-12-04T22:24:45.197Z,27.30
2022-12-04T22:27:19.378Z,26.55
2022-12-04T22:29:52.664Z,28.70
2022-12-04T22:32:25.393Z,26.10
2022-12-04T22:34:58.165Z,24.88
2022-12-04T22:37:31.096Z,25.85
2022-12-04T22:40:03.992Z,26.50
2022-12-04T22:42:38.492Z,27.67
2022-12-04T22:45:12.007Z,26.90
2022-12-04T22:47:44.934Z,26.02
2022-12-04T22:52:50.591Z,27.13
2022-12-04T22:57:57.493Z,27.65
2022-12-04T23:00:30.248Z,28.13
2022-12-04T23:03:03.028Z,26.80
2022-12-04T23:08:08.951Z,27.20
2022-12-04T23:10:43.425Z,29.83
2022-12-04T23:13:17.573Z,29.45
2022-12-04T23:15:50.862Z,32.55
2022-12-04T23:18:23.735Z,32.03
2022-12-04T23:21:04.170Z,31.02
2022-12-04T23:23:40.909Z,30.17
2022-12-04T23:26:16.099Z,33.00
2022-12-04T23:28:50.378Z,31.90
2022-12-04T23:31:23.958Z,30.30
2022-12-04T23:33:56.834Z,33.13
2022-12-04T23:36:30.286Z,30.35
2022-12-04T23:39:03.154Z,30.80
2022-12-04T23:41:35.963Z,30.63
2022-12-04T23:46:43.031Z,31.75
2022-12-04T23:51:48.544Z,23.77
2022-12-04T23:54:21.416Z,30.40
2022-12-04T23:56:54.222Z,31.52
2022-12-04T23:59:28.462Z,33.33
